createdAt,value
2023-02-13T00:04:50.811Z,99.90
2023-02-13T00:09:54.816Z,99.90
2023-02-13T00:14:59.110Z,99.90
2023-02-13T00:20:01.807Z,99.90
2023-02-13T00:25:06.960Z,99.90
2023-02-13T00:30:10.526Z,99.90
2023-02-13T00:35:13.225Z,99.90
2023-02-13T00:40:17.267Z,99.90
2023-02-13T00:45:19.901Z,99.90
2023-02-13T00:50:22.547Z,99.90
2023-02-13T00:55:26.628Z,99.90
2023-02-13T01:00:29.281Z,99.90
2023-02-13T01:05:32.164Z,99.90
2023-02-13T01:10:37.771Z,99.90
2023-02-13T01:15:40.895Z,99.90
2023-02-13T01:20:44.734Z,99.90
2023-02-13T01:25:48.699Z,99.90
2023-02-13T01:30:55.107Z,99.90
2023-02-13T01:35:58.129Z,99.90
2023-02-13T01:41:02.233Z,99.90
2023-02-13T01:46:04.979Z,99.90
2023-02-13T01:51:10.776Z,99.90
2023-02-13T01:56:19.003Z,99.90
2023-02-13T02:01:22.821Z,99.90
2023-02-13T02:06:29.122Z,99.90
2023-02-13T02:11:38.541Z,99.90
2023-02-13T02:16:41.209Z,99.90
2023-02-13T02:22:17.148Z,99.90
2023-02-13T02:27:47.812Z,99.90
2023-02-13T02:33:00.241Z,99.90
2023-02-13T02:38:12.931Z,99.90
2023-02-13T02:43:29.600Z,99.90
2023-02-13T02:48:58.869Z,99.90
2023-02-13T02:54:30.258Z,99.90
2023-02-13T02:59:51.577Z,99.90
2023-02-13T03:05:28.886Z,99.90
2023-02-13T03:10:53.773Z,99.90
2023-02-13T03:16:19.621Z,99.90
2023-02-13T03:21:51.444Z,99.90
2023-02-13T03:27:02.329Z,99.90
2023-02-13T03:32:12.702Z,99.90
2023-02-13T03:37:36.797Z,99.90
2023-02-13T03:42:46.314Z,99.90
2023-02-13T03:47:51.610Z,99.90
2023-02-13T03:52:59.830Z,99.90
2023-02-13T03:58:25.081Z,99.90
2023-02-13T04:03:32.402Z,99.90
2023-02-13T04:08:36.546Z,99.90
2023-02-13T04:13:44.522Z,99.90
2023-02-13T04:18:49.318Z,99.90
2023-02-13T04:31:03.378Z,99.90
2023-02-13T05:14:24.266Z,99.90
2023-02-13T05:45:17.494Z,99.90
2023-02-13T05:51:10.446Z,99.90
2023-02-13T06:15:24.281Z,99.90
2023-02-13T06:20:46.824Z,99.90
2023-02-13T07:02:36.453Z,99.90
2023-02-13T07:38:33.693Z,99.90
2023-02-13T07:43:36.402Z,99.90
2023-02-13T07:48:39.079Z,99.90
2023-02-13T07:53:43.034Z,99.90
2023-02-13T07:58:45.835Z,99.90
2023-02-13T08:03:51.738Z,99.90
2023-02-13T08:09:09.777Z,99.90
2023-02-13T08:14:12.496Z,99.90
2023-02-13T08:19:15.173Z,99.90
2023-02-13T08:24:19.229Z,99.90
2023-02-13T08:29:21.897Z,99.90
2023-02-13T08:34:24.684Z,99.90
2023-02-13T08:39:28.632Z,99.90
2023-02-13T08:44:31.565Z,99.90
2023-02-13T08:49:34.486Z,99.90
2023-02-13T08:54:38.449Z,99.90
2023-02-13T08:59:41.474Z,99.90
2023-02-13T09:04:44.138Z,99.90
2023-02-13T09:09:48.215Z,99.90
2023-02-13T09:14:50.870Z,99.90
2023-02-13T09:19:53.545Z,99.90
2023-02-13T09:24:59.184Z,99.90
2023-02-13T09:30:01.942Z,99.90
2023-02-13T09:35:06.494Z,99.90
2023-02-13T09:40:19.000Z,99.90
2023-02-13T09:45:22.914Z,99.90
2023-02-13T09:50:28.262Z,1.00
2023-02-13T09:55:40.914Z,1.00
2023-02-13T10:00:47.094Z,1.00
2023-02-13T10:06:01.119Z,1.00
2023-02-13T10:11:23.036Z,1.00
2023-02-13T10:16:29.940Z,1.00
2023-02-13T10:21:37.226Z,1.00
2023-02-13T10:26:45.449Z,1.00
2023-02-13T10:31:50.697Z,1.00
2023-02-13T10:36:53.498Z,1.00
2023-02-13T10:42:06.596Z,1.00
2023-02-13T10:47:20.214Z,1.00
2023-02-13T10:52:32.527Z,99.90
2023-02-13T10:57:58.343Z,1.00
2023-02-13T11:03:01.379Z,99.90
2023-02-13T11:08:04.610Z,1.00
2023-02-13T11:13:19.743Z,99.90
2023-02-13T11:18:24.656Z,1.00
2023-02-13T11:23:37.280Z,99.90
2023-02-13T11:28:50.635Z,1.00
2023-02-13T11:33:53.648Z,1.00
2023-02-13T11:39:01.613Z,1.00
2023-02-13T11:44:06.106Z,33.40
2023-02-13T11:49:18.266Z,99.90
2023-02-13T11:54:31.895Z,1.00
2023-02-13T11:59:42.851Z,1.00
2023-02-13T12:04:46.241Z,1.00
2023-02-13T12:09:53.899Z,1.00
2023-02-13T12:14:59.227Z,1.00
2023-02-13T12:20:02.294Z,99.90
2023-02-13T12:25:46.167Z,1.00
2023-02-13T12:31:14.827Z,99.90
2023-02-13T12:36:22.256Z,1.00
2023-02-13T12:41:32.617Z,99.90
2023-02-13T12:46:45.357Z,99.90
2023-02-13T12:51:54.701Z,1.00
2023-02-13T12:57:12.635Z,1.00
2023-02-13T13:03:06.603Z,1.00
2023-02-13T13:08:37.131Z,1.00
2023-02-13T13:13:53.193Z,1.00
2023-02-13T13:19:08.870Z,1.00
2023-02-13T13:24:25.695Z,1.00
2023-02-13T13:29:43.673Z,99.90
2023-02-13T13:34:48.203Z,99.90
2023-02-13T13:53:08.777Z,1.00
2023-02-13T13:59:10.279Z,60.30
2023-02-13T14:28:57.460Z,46.20
2023-02-13T14:34:02.488Z,1.00
2023-02-13T14:39:08.394Z,1.00
2023-02-13T14:44:17.902Z,1.00
2023-02-13T14:49:24.100Z,1.00
2023-02-13T14:54:30.523Z,1.00
2023-02-13T14:59:37.820Z,1.00
2023-02-13T15:04:43.907Z,99.90
2023-02-13T15:09:52.459Z,99.90
2023-02-13T15:14:56.632Z,99.90
2023-02-13T15:20:05.878Z,1.00
2023-02-13T15:25:10.006Z,99.90
2023-02-13T15:30:23.680Z,1.00
2023-02-13T15:35:28.991Z,99.90
2023-02-13T15:40:37.826Z,4.10
2023-02-13T15:45:44.477Z,1.00
2023-02-13T15:50:48.091Z,1.00
2023-02-13T15:55:58.573Z,1.00
2023-02-13T16:01:07.329Z,1.00
2023-02-13T16:06:15.679Z,99.90
2023-02-13T16:11:31.416Z,99.90
2023-02-13T16:16:42.945Z,99.90
2023-02-13T16:21:49.833Z,1.00
2023-02-13T16:26:52.950Z,99.90
2023-02-13T16:32:11.474Z,1.00
2023-02-13T16:37:31.083Z,1.00
2023-02-13T16:42:33.759Z,1.00
2023-02-13T16:47:37.777Z,1.00
2023-02-13T16:52:40.476Z,1.00
2023-02-13T16:57:44.266Z,1.00
2023-02-13T17:02:50.668Z,1.00
2023-02-13T17:07:57.026Z,1.00
2023-02-13T17:13:02.458Z,1.00
2023-02-13T17:18:06.669Z,1.00
2023-02-13T17:23:17.250Z,1.00
2023-02-13T17:28:22.529Z,1.00
2023-02-13T17:33:28.613Z,1.00
2023-02-13T17:38:31.285Z,1.00
2023-02-13T17:43:33.960Z,1.00
2023-02-13T17:48:37.941Z,1.00
2023-02-13T17:53:40.906Z,1.00
2023-02-13T17:58:43.560Z,1.00
2023-02-13T18:03:47.532Z,1.00
2023-02-13T18:08:50.184Z,1.00
2023-02-13T18:13:53.212Z,1.00
2023-02-13T18:18:57.546Z,1.00
2023-02-13T18:24:00.193Z,1.00
2023-02-13T18:29:02.888Z,1.00
2023-02-13T18:34:07.064Z,1.00
2023-02-13T18:39:09.745Z,1.00
2023-02-13T18:44:23.328Z,1.00
2023-02-13T18:49:32.054Z,1.00
2023-02-13T18:54:34.918Z,1.00
2023-02-13T18:59:37.659Z,1.00
2023-02-13T19:04:41.872Z,1.00
2023-02-13T19:09:46.754Z,1.00
2023-02-13T19:14:49.525Z,1.00
2023-02-13T22:02:33.421Z,1.00
2023-02-13T22:07:57.831Z,6.20
2023-02-13T22:13:00.561Z,41.40
2023-02-13T22:18:03.227Z,42.00
2023-02-13T22:23:07.249Z,71.40
2023-02-13T22:28:09.984Z,99.90
2023-02-13T22:33:12.702Z,80.60
2023-02-13T22:38:16.704Z,99.90
2023-02-13T22:43:19.455Z,99.90
2023-02-13T22:48:22.079Z,99.90
2023-02-13T22:53:26.211Z,71.00
2023-02-13T22:58:29.211Z,66.40
2023-02-13T23:03:33.430Z,39.50
2023-02-13T23:08:38.593Z,19.90
2023-02-13T23:13:42.244Z,1.00
2023-02-13T23:18:47.655Z,1.00
2023-02-13T23:23:51.898Z,1.00
2023-02-13T23:28:54.538Z,1.00
2023-02-13T23:33:57.275Z,1.00
2023-02-13T23:39:04.094Z,1.00
2023-02-13T23:44:06.777Z,1.00
2023-02-13T23:49:09.497Z,1.00
2023-02-13T23:54:16.799Z,1.00
2023-02-13T23:59:20.310Z,1.00
